sensor_id;sensor_type;location;lat;lon;timestamp;P1;durP1;ratioP1;P2;durP2;ratioP2
47481;SDS011;33219;47.410;9.730;2023-06-24T00:00:13;6.85;;;5.03;;
47481;SDS011;33219;47.410;9.730;2023-06-24T00:02:41;5.78;;;4.83;;
47481;SDS011;33219;47.410;9.730;2023-06-24T00:05:11;7.10;;;5.25;;
47481;SDS011;33219;47.410;9.730;2023-06-24T00:07:38;6.37;;;5.33;;
47481;SDS011;33219;47.410;9.730;2023-06-24T00:10:07;7.97;;;4.78;;
47481;SDS011;33219;47.410;9.730;2023-06-24T00:12:38;5.83;;;4.70;;
47481;SDS011;33219;47.410;9.730;2023-06-24T00:15:07;6.20;;;4.80;;
47481;SDS011;33219;47.410;9.730;2023-06-24T00:17:37;6.75;;;5.10;;
47481;SDS011;33219;47.410;9.730;2023-06-24T00:20:06;6.45;;;4.78;;
47481;SDS011;33219;47.410;9.730;2023-06-24T00:22:36;6.72;;;4.83;;
47481;SDS011;33219;47.410;9.730;2023-06-24T00:25:06;6.65;;;5.03;;
47481;SDS011;33219;47.410;9.730;2023-06-24T00:27:34;6.30;;;4.70;;
47481;SDS011;33219;47.410;9.730;2023-06-24T00:30:02;8.05;;;4.67;;
47481;SDS011;33219;47.410;9.730;2023-06-24T00:32:29;5.95;;;4.70;;
47481;SDS011;33219;47.410;9.730;2023-06-24T00:34:57;6.83;;;4.85;;
47481;SDS011;33219;47.410;9.730;2023-06-24T00:37:25;7.08;;;4.95;;
47481;SDS011;33219;47.410;9.730;2023-06-24T00:39:53;6.97;;;5.15;;
47481;SDS011;33219;47.410;9.730;2023-06-24T00:42:20;6.80;;;5.00;;
47481;SDS011;33219;47.410;9.730;2023-06-24T00:44:48;6.92;;;4.80;;
47481;SDS011;33219;47.410;9.730;2023-06-24T00:47:16;6.80;;;5.37;;
47481;SDS011;33219;47.410;9.730;2023-06-24T00:49:44;6.35;;;4.72;;
47481;SDS011;33219;47.410;9.730;2023-06-24T00:52:12;8.35;;;5.03;;
47481;SDS011;33219;47.410;9.730;2023-06-24T00:54:43;8.15;;;4.80;;
47481;SDS011;33219;47.410;9.730;2023-06-24T00:57:11;8.63;;;5.10;;
47481;SDS011;33219;47.410;9.730;2023-06-24T00:59:39;6.05;;;4.78;;
47481;SDS011;33219;47.410;9.730;2023-06-24T01:02:09;5.87;;;4.97;;
47481;SDS011;33219;47.410;9.730;2023-06-24T01:04:36;6.60;;;4.62;;
47481;SDS011;33219;47.410;9.730;2023-06-24T01:07:04;7.12;;;4.92;;
47481;SDS011;33219;47.410;9.730;2023-06-24T01:09:32;6.62;;;5.22;;
47481;SDS011;33219;47.410;9.730;2023-06-24T01:12:01;6.12;;;4.67;;
47481;SDS011;33219;47.410;9.730;2023-06-24T01:14:29;8.48;;;5.17;;
47481;SDS011;33219;47.410;9.730;2023-06-24T01:17:03;7.60;;;4.72;;
47481;SDS011;33219;47.410;9.730;2023-06-24T01:22:36;6.30;;;4.42;;
47481;SDS011;33219;47.410;9.730;2023-06-24T01:25:30;8.83;;;5.33;;
47481;SDS011;33219;47.410;9.730;2023-06-24T01:28:11;6.75;;;5.08;;
47481;SDS011;33219;47.410;9.730;2023-06-24T01:33:22;6.47;;;4.65;;
47481;SDS011;33219;47.410;9.730;2023-06-24T01:35:53;9.48;;;5.05;;
47481;SDS011;33219;47.410;9.730;2023-06-24T01:38:24;8.75;;;5.42;;
47481;SDS011;33219;47.410;9.730;2023-06-24T01:40:53;7.87;;;5.58;;
47481;SDS011;33219;47.410;9.730;2023-06-24T01:43:21;9.65;;;4.83;;
47481;SDS011;33219;47.410;9.730;2023-06-24T01:45:51;6.28;;;5.40;;
47481;SDS011;33219;47.410;9.730;2023-06-24T01:48:27;6.58;;;4.67;;
47481;SDS011;33219;47.410;9.730;2023-06-24T01:50:59;6.17;;;4.85;;
47481;SDS011;33219;47.410;9.730;2023-06-24T01:53:28;6.00;;;4.83;;
47481;SDS011;33219;47.410;9.730;2023-06-24T01:55:57;7.08;;;5.47;;
47481;SDS011;33219;47.410;9.730;2023-06-24T01:58:27;6.87;;;5.05;;
47481;SDS011;33219;47.410;9.730;2023-06-24T02:00:56;6.25;;;4.90;;
47481;SDS011;33219;47.410;9.730;2023-06-24T02:03:25;7.75;;;5.22;;
47481;SDS011;33219;47.410;9.730;2023-06-24T02:05:55;7.17;;;5.08;;
47481;SDS011;33219;47.410;9.730;2023-06-24T02:08:23;6.87;;;4.97;;
47481;SDS011;33219;47.410;9.730;2023-06-24T02:10:52;7.55;;;4.90;;
47481;SDS011;33219;47.410;9.730;2023-06-24T02:13:22;6.22;;;4.95;;
47481;SDS011;33219;47.410;9.730;2023-06-24T02:15:53;8.20;;;5.25;;
47481;SDS011;33219;47.410;9.730;2023-06-24T02:18:22;6.30;;;4.97;;
47481;SDS011;33219;47.410;9.730;2023-06-24T02:20:49;6.45;;;4.72;;
47481;SDS011;33219;47.410;9.730;2023-06-24T02:23:18;7.55;;;5.00;;
47481;SDS011;33219;47.410;9.730;2023-06-24T02:25:47;7.03;;;4.55;;
47481;SDS011;33219;47.410;9.730;2023-06-24T02:28:17;6.08;;;4.75;;
47481;SDS011;33219;47.410;9.730;2023-06-24T02:30:45;6.67;;;4.90;;
47481;SDS011;33219;47.410;9.730;2023-06-24T02:33:13;6.37;;;5.08;;
47481;SDS011;33219;47.410;9.730;2023-06-24T02:35:41;8.90;;;5.42;;
47481;SDS011;33219;47.410;9.730;2023-06-24T02:38:11;7.92;;;5.35;;
47481;SDS011;33219;47.410;9.730;2023-06-24T02:40:38;6.22;;;4.83;;
47481;SDS011;33219;47.410;9.730;2023-06-24T02:43:06;8.63;;;5.10;;
47481;SDS011;33219;47.410;9.730;2023-06-24T02:45:34;6.53;;;4.78;;
47481;SDS011;33219;47.410;9.730;2023-06-24T02:48:01;6.47;;;4.80;;
47481;SDS011;33219;47.410;9.730;2023-06-24T02:50:30;6.65;;;4.97;;
47481;SDS011;33219;47.410;9.730;2023-06-24T02:53:00;6.12;;;5.12;;
47481;SDS011;33219;47.410;9.730;2023-06-24T02:55:28;6.33;;;4.97;;
47481;SDS011;33219;47.410;9.730;2023-06-24T02:57:58;7.10;;;5.40;;
47481;SDS011;33219;47.410;9.730;2023-06-24T03:00:26;7.62;;;5.12;;
47481;SDS011;33219;47.410;9.730;2023-06-24T03:02:55;6.22;;;4.58;;
47481;SDS011;33219;47.410;9.730;2023-06-24T03:05:23;6.62;;;5.10;;
47481;SDS011;33219;47.410;9.730;2023-06-24T03:07:51;5.45;;;4.60;;
47481;SDS011;33219;47.410;9.730;2023-06-24T03:10:19;7.08;;;5.28;;
47481;SDS011;33219;47.410;9.730;2023-06-24T03:12:48;6.60;;;4.65;;
47481;SDS011;33219;47.410;9.730;2023-06-24T03:15:15;5.80;;;4.78;;
47481;SDS011;33219;47.410;9.730;2023-06-24T03:17:43;7.60;;;4.85;;
47481;SDS011;33219;47.410;9.730;2023-06-24T03:20:11;7.10;;;4.80;;
47481;SDS011;33219;47.410;9.730;2023-06-24T03:22:39;6.35;;;4.67;;
47481;SDS011;33219;47.410;9.730;2023-06-24T03:25:07;5.17;;;4.35;;
47481;SDS011;33219;47.410;9.730;2023-06-24T03:27:34;5.87;;;4.55;;
47481;SDS011;33219;47.410;9.730;2023-06-24T03:30:02;8.28;;;5.10;;
47481;SDS011;33219;47.410;9.730;2023-06-24T03:32:30;7.30;;;4.65;;
47481;SDS011;33219;47.410;9.730;2023-06-24T03:35:00;6.92;;;5.00;;
47481;SDS011;33219;47.410;9.730;2023-06-24T03:37:27;5.60;;;4.62;;
47481;SDS011;33219;47.410;9.730;2023-06-24T03:39:55;7.47;;;5.60;;
47481;SDS011;33219;47.410;9.730;2023-06-24T03:42:23;8.40;;;5.12;;
47481;SDS011;33219;47.410;9.730;2023-06-24T03:44:50;6.80;;;5.10;;
47481;SDS011;33219;47.410;9.730;2023-06-24T03:47:18;6.42;;;5.15;;
47481;SDS011;33219;47.410;9.730;2023-06-24T03:49:46;8.33;;;5.60;;
47481;SDS011;33219;47.410;9.730;2023-06-24T03:52:13;6.85;;;5.72;;
47481;SDS011;33219;47.410;9.730;2023-06-24T03:54:41;7.83;;;6.22;;
47481;SDS011;33219;47.410;9.730;2023-06-24T03:57:08;8.30;;;5.97;;
47481;SDS011;33219;47.410;9.730;2023-06-24T03:59:36;8.10;;;6.05;;
47481;SDS011;33219;47.410;9.730;2023-06-24T04:02:04;9.18;;;6.17;;
47481;SDS011;33219;47.410;9.730;2023-06-24T04:04:35;7.37;;;5.83;;
47481;SDS011;33219;47.410;9.730;2023-06-24T04:07:03;7.10;;;5.78;;
47481;SDS011;33219;47.410;9.730;2023-06-24T04:09:35;7.85;;;5.37;;
47481;SDS011;33219;47.410;9.730;2023-06-24T04:12:03;7.10;;;5.12;;
47481;SDS011;33219;47.410;9.730;2023-06-24T04:14:31;6.65;;;5.20;;
47481;SDS011;33219;47.410;9.730;2023-06-24T04:16:58;6.70;;;4.85;;
47481;SDS011;33219;47.410;9.730;2023-06-24T04:19:27;5.95;;;5.15;;
47481;SDS011;33219;47.410;9.730;2023-06-24T04:21:55;6.70;;;5.20;;
47481;SDS011;33219;47.410;9.730;2023-06-24T04:24:22;7.37;;;5.20;;
47481;SDS011;33219;47.410;9.730;2023-06-24T04:26:50;8.83;;;5.15;;
47481;SDS011;33219;47.410;9.730;2023-06-24T04:29:17;8.63;;;5.37;;
47481;SDS011;33219;47.410;9.730;2023-06-24T04:31:45;8.43;;;5.35;;
47481;SDS011;33219;47.410;9.730;2023-06-24T04:34:13;6.15;;;5.12;;
47481;SDS011;33219;47.410;9.730;2023-06-24T04:36:40;7.00;;;5.65;;
47481;SDS011;33219;47.410;9.730;2023-06-24T04:39:08;7.37;;;5.35;;
47481;SDS011;33219;47.410;9.730;2023-06-24T04:41:35;7.35;;;5.95;;
47481;SDS011;33219;47.410;9.730;2023-06-24T04:44:03;7.95;;;5.62;;
47481;SDS011;33219;47.410;9.730;2023-06-24T04:46:31;7.37;;;5.60;;
47481;SDS011;33219;47.410;9.730;2023-06-24T04:49:02;8.05;;;5.67;;
47481;SDS011;33219;47.410;9.730;2023-06-24T04:51:30;8.98;;;5.67;;
47481;SDS011;33219;47.410;9.730;2023-06-24T04:53:57;7.70;;;5.42;;
47481;SDS011;33219;47.410;9.730;2023-06-24T04:56:26;7.45;;;5.85;;
47481;SDS011;33219;47.410;9.730;2023-06-24T04:58:54;7.50;;;6.45;;
47481;SDS011;33219;47.410;9.730;2023-06-24T05:01:22;7.33;;;6.05;;
47481;SDS011;33219;47.410;9.730;2023-06-24T05:03:49;9.95;;;5.72;;
47481;SDS011;33219;47.410;9.730;2023-06-24T05:06:17;8.78;;;6.90;;
47481;SDS011;33219;47.410;9.730;2023-06-24T05:08:45;8.43;;;6.08;;
47481;SDS011;33219;47.410;9.730;2023-06-24T05:11:12;7.97;;;5.80;;
47481;SDS011;33219;47.410;9.730;2023-06-24T05:13:40;8.10;;;6.12;;
47481;SDS011;33219;47.410;9.730;2023-06-24T05:16:07;7.95;;;5.83;;
47481;SDS011;33219;47.410;9.730;2023-06-24T05:18:35;8.73;;;6.03;;
47481;SDS011;33219;47.410;9.730;2023-06-24T05:21:02;9.70;;;6.15;;
47481;SDS011;33219;47.410;9.730;2023-06-24T05:23:30;8.20;;;6.15;;
47481;SDS011;33219;47.410;9.730;2023-06-24T05:25:57;7.70;;;6.05;;
47481;SDS011;33219;47.410;9.730;2023-06-24T05:28:25;7.80;;;6.47;;
47481;SDS011;33219;47.410;9.730;2023-06-24T05:30:52;8.85;;;6.67;;
47481;SDS011;33219;47.410;9.730;2023-06-24T05:33:20;8.98;;;6.75;;
47481;SDS011;33219;47.410;9.730;2023-06-24T05:35:48;10.38;;;7.25;;
47481;SDS011;33219;47.410;9.730;2023-06-24T05:38:16;9.33;;;7.00;;
47481;SDS011;33219;47.410;9.730;2023-06-24T05:40:44;8.68;;;6.55;;
47481;SDS011;33219;47.410;9.730;2023-06-24T05:43:11;8.65;;;6.72;;
47481;SDS011;33219;47.410;9.730;2023-06-24T05:45:39;7.90;;;6.22;;
47481;SDS011;33219;47.410;9.730;2023-06-24T05:48:06;8.55;;;6.50;;
47481;SDS011;33219;47.410;9.730;2023-06-24T05:50:34;8.68;;;6.33;;
47481;SDS011;33219;47.410;9.730;2023-06-24T05:53:01;7.28;;;5.97;;
47481;SDS011;33219;47.410;9.730;2023-06-24T05:55:29;8.63;;;6.30;;
47481;SDS011;33219;47.410;9.730;2023-06-24T05:57:57;7.12;;;5.90;;
47481;SDS011;33219;47.410;9.730;2023-06-24T06:00:24;8.13;;;6.10;;
47481;SDS011;33219;47.410;9.730;2023-06-24T06:02:52;7.05;;;5.47;;
47481;SDS011;33219;47.410;9.730;2023-06-24T06:05:20;8.98;;;6.45;;
47481;SDS011;33219;47.410;9.730;2023-06-24T06:07:47;8.23;;;6.12;;
47481;SDS011;33219;47.410;9.730;2023-06-24T06:10:15;9.30;;;5.95;;
47481;SDS011;33219;47.410;9.730;2023-06-24T06:12:43;7.87;;;6.00;;
47481;SDS011;33219;47.410;9.730;2023-06-24T06:15:14;6.80;;;5.67;;
47481;SDS011;33219;47.410;9.730;2023-06-24T06:17:41;6.33;;;5.70;;
47481;SDS011;33219;47.410;9.730;2023-06-24T06:20:09;8.35;;;6.35;;
47481;SDS011;33219;47.410;9.730;2023-06-24T06:22:37;10.00;;;6.90;;
47481;SDS011;33219;47.410;9.730;2023-06-24T06:25:05;11.73;;;7.62;;
47481;SDS011;33219;47.410;9.730;2023-06-24T06:27:33;11.57;;;8.10;;
47481;SDS011;33219;47.410;9.730;2023-06-24T06:30:00;11.85;;;8.38;;
47481;SDS011;33219;47.410;9.730;2023-06-24T06:32:28;11.10;;;8.28;;
47481;SDS011;33219;47.410;9.730;2023-06-24T06:34:56;12.33;;;8.50;;
47481;SDS011;33219;47.410;9.730;2023-06-24T06:37:23;9.85;;;7.85;;
47481;SDS011;33219;47.410;9.730;2023-06-24T06:39:51;13.88;;;8.35;;
47481;SDS011;33219;47.410;9.730;2023-06-24T06:42:19;12.23;;;7.97;;
47481;SDS011;33219;47.410;9.730;2023-06-24T06:44:46;9.98;;;8.63;;
47481;SDS011;33219;47.410;9.730;2023-06-24T06:47:14;9.33;;;8.03;;
47481;SDS011;33219;47.410;9.730;2023-06-24T06:49:41;11.28;;;7.85;;
47481;SDS011;33219;47.410;9.730;2023-06-24T06:52:09;9.88;;;8.50;;
47481;SDS011;33219;47.410;9.730;2023-06-24T06:54:36;9.15;;;8.20;;
47481;SDS011;33219;47.410;9.730;2023-06-24T06:57:04;10.38;;;8.23;;
47481;SDS011;33219;47.410;9.730;2023-06-24T06:59:32;11.73;;;7.87;;
47481;SDS011;33219;47.410;9.730;2023-06-24T07:02:00;10.70;;;7.72;;
47481;SDS011;33219;47.410;9.730;2023-06-24T07:04:28;8.50;;;7.60;;
47481;SDS011;33219;47.410;9.730;2023-06-24T07:06:56;9.55;;;7.55;;
47481;SDS011;33219;47.410;9.730;2023-06-24T07:09:24;9.95;;;7.45;;
47481;SDS011;33219;47.410;9.730;2023-06-24T07:11:52;11.50;;;7.25;;
47481;SDS011;33219;47.410;9.730;2023-06-24T07:14:19;10.15;;;6.97;;
47481;SDS011;33219;47.410;9.730;2023-06-24T07:16:47;8.08;;;6.25;;
47481;SDS011;33219;47.410;9.730;2023-06-24T07:19:15;7.75;;;6.17;;
47481;SDS011;33219;47.410;9.730;2023-06-24T07:21:42;8.85;;;6.58;;
47481;SDS011;33219;47.410;9.730;2023-06-24T07:24:10;9.53;;;7.87;;
47481;SDS011;33219;47.410;9.730;2023-06-24T07:26:39;9.48;;;7.40;;
47481;SDS011;33219;47.410;9.730;2023-06-24T07:29:07;8.03;;;6.85;;
47481;SDS011;33219;47.410;9.730;2023-06-24T07:31:35;9.63;;;7.33;;
47481;SDS011;33219;47.410;9.730;2023-06-24T07:34:03;8.50;;;7.28;;
47481;SDS011;33219;47.410;9.730;2023-06-24T07:36:31;7.87;;;7.08;;
47481;SDS011;33219;47.410;9.730;2023-06-24T07:38:58;10.48;;;7.50;;
47481;SDS011;33219;47.410;9.730;2023-06-24T07:41:26;9.03;;;8.05;;
47481;SDS011;33219;47.410;9.730;2023-06-24T07:43:54;10.35;;;7.92;;
47481;SDS011;33219;47.410;9.730;2023-06-24T07:46:21;11.57;;;8.48;;
47481;SDS011;33219;47.410;9.730;2023-06-24T07:48:49;9.05;;;7.75;;
47481;SDS011;33219;47.410;9.730;2023-06-24T07:51:16;10.38;;;8.18;;
47481;SDS011;33219;47.410;9.730;2023-06-24T07:53:44;11.12;;;9.05;;
47481;SDS011;33219;47.410;9.730;2023-06-24T07:56:11;10.00;;;8.30;;
47481;SDS011;33219;47.410;9.730;2023-06-24T07:58:39;9.13;;;8.20;;
47481;SDS011;33219;47.410;9.730;2023-06-24T08:01:07;11.93;;;8.88;;
47481;SDS011;33219;47.410;9.730;2023-06-24T08:03:34;11.65;;;7.90;;
47481;SDS011;33219;47.410;9.730;2023-06-24T08:06:03;9.95;;;7.92;;
47481;SDS011;33219;47.410;9.730;2023-06-24T08:08:31;10.68;;;7.70;;
47481;SDS011;33219;47.410;9.730;2023-06-24T08:10:59;10.03;;;7.72;;
47481;SDS011;33219;47.410;9.730;2023-06-24T08:13:27;8.60;;;7.15;;
47481;SDS011;33219;47.410;9.730;2023-06-24T08:15:54;7.22;;;6.35;;
47481;SDS011;33219;47.410;9.730;2023-06-24T08:18:22;7.40;;;6.60;;
47481;SDS011;33219;47.410;9.730;2023-06-24T08:20:49;7.87;;;7.05;;
47481;SDS011;33219;47.410;9.730;2023-06-24T08:23:17;8.38;;;6.75;;
47481;SDS011;33219;47.410;9.730;2023-06-24T08:25:44;6.90;;;6.20;;
47481;SDS011;33219;47.410;9.730;2023-06-24T08:28:12;7.20;;;6.40;;
47481;SDS011;33219;47.410;9.730;2023-06-24T08:30:40;8.83;;;6.62;;
47481;SDS011;33219;47.410;9.730;2023-06-24T08:33:07;7.35;;;6.30;;
47481;SDS011;33219;47.410;9.730;2023-06-24T08:35:35;7.00;;;6.30;;
47481;SDS011;33219;47.410;9.730;2023-06-24T08:38:02;9.93;;;6.72;;
47481;SDS011;33219;47.410;9.730;2023-06-24T08:40:30;7.28;;;6.53;;
47481;SDS011;33219;47.410;9.730;2023-06-24T08:42:58;10.88;;;6.65;;
47481;SDS011;33219;47.410;9.730;2023-06-24T08:45:25;8.83;;;6.78;;
47481;SDS011;33219;47.410;9.730;2023-06-24T08:47:53;7.53;;;6.72;;
47481;SDS011;33219;47.410;9.730;2023-06-24T08:50:22;7.70;;;5.90;;
47481;SDS011;33219;47.410;9.730;2023-06-24T08:55:22;6.53;;;5.92;;
47481;SDS011;33219;47.410;9.730;2023-06-24T08:57:50;6.58;;;5.72;;
47481;SDS011;33219;47.410;9.730;2023-06-24T09:00:18;8.20;;;6.15;;
47481;SDS011;33219;47.410;9.730;2023-06-24T09:02:45;7.10;;;6.10;;
47481;SDS011;33219;47.410;9.730;2023-06-24T09:05:13;7.12;;;6.42;;
47481;SDS011;33219;47.410;9.730;2023-06-24T09:07:41;7.72;;;6.25;;
47481;SDS011;33219;47.410;9.730;2023-06-24T09:10:08;7.05;;;6.35;;
47481;SDS011;33219;47.410;9.730;2023-06-24T09:12:36;7.20;;;6.00;;
47481;SDS011;33219;47.410;9.730;2023-06-24T09:15:04;6.22;;;5.62;;
47481;SDS011;33219;47.410;9.730;2023-06-24T09:17:32;7.42;;;6.10;;
47481;SDS011;33219;47.410;9.730;2023-06-24T09:20:03;6.55;;;5.70;;
47481;SDS011;33219;47.410;9.730;2023-06-24T09:22:31;7.20;;;6.12;;
47481;SDS011;33219;47.410;9.730;2023-06-24T09:25:00;7.00;;;6.30;;
47481;SDS011;33219;47.410;9.730;2023-06-24T09:27:30;7.75;;;5.65;;
47481;SDS011;33219;47.410;9.730;2023-06-24T09:30:00;6.05;;;5.45;;
47481;SDS011;33219;47.410;9.730;2023-06-24T09:32:29;6.83;;;5.85;;
47481;SDS011;33219;47.410;9.730;2023-06-24T09:34:57;6.40;;;4.90;;
47481;SDS011;33219;47.410;9.730;2023-06-24T09:37:25;5.62;;;4.75;;
47481;SDS011;33219;47.410;9.730;2023-06-24T09:39:54;5.60;;;4.90;;
47481;SDS011;33219;47.410;9.730;2023-06-24T09:42:22;6.30;;;5.67;;
47481;SDS011;33219;47.410;9.730;2023-06-24T09:44:53;6.83;;;5.87;;
47481;SDS011;33219;47.410;9.730;2023-06-24T09:47:21;7.33;;;6.17;;
47481;SDS011;33219;47.410;9.730;2023-06-24T09:49:53;6.83;;;6.10;;
47481;SDS011;33219;47.410;9.730;2023-06-24T09:52:21;7.05;;;5.75;;
47481;SDS011;33219;47.410;9.730;2023-06-24T09:54:50;6.00;;;5.40;;
47481;SDS011;33219;47.410;9.730;2023-06-24T09:57:25;6.03;;;4.50;;
47481;SDS011;33219;47.410;9.730;2023-06-24T09:59:56;5.53;;;4.85;;
47481;SDS011;33219;47.410;9.730;2023-06-24T10:02:24;6.10;;;4.40;;
47481;SDS011;33219;47.410;9.730;2023-06-24T10:04:52;5.20;;;4.15;;
47481;SDS011;33219;47.410;9.730;2023-06-24T10:07:21;4.50;;;4.10;;
47481;SDS011;33219;47.410;9.730;2023-06-24T10:09:48;6.62;;;4.03;;
47481;SDS011;33219;47.410;9.730;2023-06-24T10:12:16;4.55;;;3.50;;
47481;SDS011;33219;47.410;9.730;2023-06-24T10:14:44;5.12;;;3.70;;
47481;SDS011;33219;47.410;9.730;2023-06-24T10:17:12;5.53;;;3.42;;
47481;SDS011;33219;47.410;9.730;2023-06-24T10:19:40;4.92;;;3.60;;
47481;SDS011;33219;47.410;9.730;2023-06-24T10:22:08;4.30;;;3.70;;
47481;SDS011;33219;47.410;9.730;2023-06-24T10:24:41;4.60;;;3.52;;
47481;SDS011;33219;47.410;9.730;2023-06-24T10:27:14;4.80;;;3.77;;
47481;SDS011;33219;47.410;9.730;2023-06-24T10:29:52;4.60;;;3.70;;
47481;SDS011;33219;47.410;9.730;2023-06-24T10:32:21;4.58;;;3.45;;
47481;SDS011;33219;47.410;9.730;2023-06-24T10:34:56;4.62;;;3.45;;
47481;SDS011;33219;47.410;9.730;2023-06-24T10:37:25;4.33;;;3.60;;
47481;SDS011;33219;47.410;9.730;2023-06-24T10:44:56;4.42;;;3.35;;
47481;SDS011;33219;47.410;9.730;2023-06-24T10:47:25;4.10;;;3.50;;
47481;SDS011;33219;47.410;9.730;2023-06-24T10:49:54;4.78;;;3.47;;
47481;SDS011;33219;47.410;9.730;2023-06-24T10:52:22;4.05;;;3.10;;
47481;SDS011;33219;47.410;9.730;2023-06-24T10:54:51;4.08;;;3.40;;
47481;SDS011;33219;47.410;9.730;2023-06-24T10:57:24;4.10;;;3.30;;
47481;SDS011;33219;47.410;9.730;2023-06-24T10:59:55;4.17;;;3.65;;
47481;SDS011;33219;47.410;9.730;2023-06-24T11:02:24;4.53;;;3.30;;
47481;SDS011;33219;47.410;9.730;2023-06-24T11:04:53;5.72;;;3.62;;
47481;SDS011;33219;47.410;9.730;2023-06-24T11:07:24;4.05;;;3.47;;
47481;SDS011;33219;47.410;9.730;2023-06-24T11:09:54;4.40;;;3.42;;
47481;SDS011;33219;47.410;9.730;2023-06-24T11:12:24;3.87;;;3.35;;
47481;SDS011;33219;47.410;9.730;2023-06-24T11:14:56;4.35;;;3.25;;
47481;SDS011;33219;47.410;9.730;2023-06-24T11:17:25;4.15;;;3.42;;
47481;SDS011;33219;47.410;9.730;2023-06-24T11:19:54;5.03;;;3.40;;
47481;SDS011;33219;47.410;9.730;2023-06-24T11:22:23;5.60;;;3.10;;
47481;SDS011;33219;47.410;9.730;2023-06-24T11:24:51;3.90;;;3.33;;
47481;SDS011;33219;47.410;9.730;2023-06-24T11:27:26;4.60;;;3.33;;
47481;SDS011;33219;47.410;9.730;2023-06-24T11:29:55;5.47;;;3.60;;
47481;SDS011;33219;47.410;9.730;2023-06-24T11:32:34;4.62;;;3.30;;
47481;SDS011;33219;47.410;9.730;2023-06-24T11:35:08;4.87;;;3.92;;
47481;SDS011;33219;47.410;9.730;2023-06-24T11:37:40;4.50;;;3.40;;
47481;SDS011;33219;47.410;9.730;2023-06-24T11:40:09;4.75;;;3.30;;
47481;SDS011;33219;47.410;9.730;2023-06-24T11:42:37;3.90;;;3.35;;
47481;SDS011;33219;47.410;9.730;2023-06-24T11:45:07;5.17;;;3.35;;
47481;SDS011;33219;47.410;9.730;2023-06-24T11:47:37;4.72;;;3.60;;
47481;SDS011;33219;47.410;9.730;2023-06-24T11:50:06;4.10;;;3.45;;
47481;SDS011;33219;47.410;9.730;2023-06-24T11:52:47;4.25;;;3.30;;
47481;SDS011;33219;47.410;9.730;2023-06-24T11:55:21;3.83;;;3.35;;
47481;SDS011;33219;47.410;9.730;2023-06-24T11:57:59;4.08;;;3.15;;
47481;SDS011;33219;47.410;9.730;2023-06-24T12:00:31;4.58;;;3.50;;
47481;SDS011;33219;47.410;9.730;2023-06-24T12:03:01;4.20;;;3.70;;
47481;SDS011;33219;47.410;9.730;2023-06-24T12:05:30;4.12;;;3.25;;
47481;SDS011;33219;47.410;9.730;2023-06-24T12:08:06;4.22;;;3.20;;
47481;SDS011;33219;47.410;9.730;2023-06-24T12:10:34;3.85;;;3.33;;
47481;SDS011;33219;47.410;9.730;2023-06-24T12:13:03;4.25;;;3.02;;
47481;SDS011;33219;47.410;9.730;2023-06-24T12:15:34;4.17;;;3.10;;
47481;SDS011;33219;47.410;9.730;2023-06-24T12:18:02;4.35;;;3.58;;
47481;SDS011;33219;47.410;9.730;2023-06-24T12:20:31;3.70;;;3.00;;
47481;SDS011;33219;47.410;9.730;2023-06-24T12:23:00;4.10;;;3.20;;
47481;SDS011;33219;47.410;9.730;2023-06-24T12:25:27;5.10;;;3.62;;
47481;SDS011;33219;47.410;9.730;2023-06-24T12:27:55;3.87;;;3.25;;
47481;SDS011;33219;47.410;9.730;2023-06-24T12:30:22;4.22;;;3.27;;
47481;SDS011;33219;47.410;9.730;2023-06-24T12:32:50;5.20;;;3.10;;
47481;SDS011;33219;47.410;9.730;2023-06-24T12:35:18;3.72;;;3.10;;
47481;SDS011;33219;47.410;9.730;2023-06-24T12:37:46;4.87;;;3.30;;
47481;SDS011;33219;47.410;9.730;2023-06-24T12:40:14;5.10;;;3.40;;
47481;SDS011;33219;47.410;9.730;2023-06-24T12:42:42;4.47;;;3.25;;
47481;SDS011;33219;47.410;9.730;2023-06-24T12:45:09;6.83;;;3.40;;
47481;SDS011;33219;47.410;9.730;2023-06-24T12:47:37;4.03;;;3.02;;
47481;SDS011;33219;47.410;9.730;2023-06-24T12:50:05;4.65;;;3.40;;
47481;SDS011;33219;47.410;9.730;2023-06-24T12:52:33;4.00;;;3.27;;
47481;SDS011;33219;47.410;9.730;2023-06-24T12:55:01;4.00;;;3.25;;
47481;SDS011;33219;47.410;9.730;2023-06-24T12:57:29;3.58;;;3.17;;
47481;SDS011;33219;47.410;9.730;2023-06-24T12:59:57;4.05;;;3.25;;
47481;SDS011;33219;47.410;9.730;2023-06-24T13:02:24;4.70;;;3.70;;
47481;SDS011;33219;47.410;9.730;2023-06-24T13:04:52;4.10;;;3.45;;
47481;SDS011;33219;47.410;9.730;2023-06-24T13:07:19;5.72;;;3.58;;
47481;SDS011;33219;47.410;9.730;2023-06-24T13:09:47;4.08;;;3.50;;
47481;SDS011;33219;47.410;9.730;2023-06-24T13:12:14;4.62;;;3.52;;
47481;SDS011;33219;47.410;9.730;2023-06-24T13:14:42;6.20;;;3.65;;
47481;SDS011;33219;47.410;9.730;2023-06-24T13:17:10;4.03;;;3.60;;
47481;SDS011;33219;47.410;9.730;2023-06-24T13:19:37;4.45;;;3.50;;
47481;SDS011;33219;47.410;9.730;2023-06-24T13:22:05;4.08;;;3.30;;
47481;SDS011;33219;47.410;9.730;2023-06-24T13:24:33;5.37;;;3.37;;
47481;SDS011;33219;47.410;9.730;2023-06-24T13:27:00;4.50;;;3.37;;
47481;SDS011;33219;47.410;9.730;2023-06-24T13:29:28;4.35;;;3.40;;
47481;SDS011;33219;47.410;9.730;2023-06-24T13:31:56;4.10;;;3.25;;
47481;SDS011;33219;47.410;9.730;2023-06-24T13:34:23;4.05;;;3.20;;
47481;SDS011;33219;47.410;9.730;2023-06-24T13:36:51;4.10;;;3.60;;
47481;SDS011;33219;47.410;9.730;2023-06-24T13:39:19;4.12;;;3.05;;
47481;SDS011;33219;47.410;9.730;2023-06-24T13:41:48;5.37;;;3.50;;
47481;SDS011;33219;47.410;9.730;2023-06-24T13:44:18;4.97;;;3.65;;
47481;SDS011;33219;47.410;9.730;2023-06-24T13:46:45;4.42;;;3.55;;
47481;SDS011;33219;47.410;9.730;2023-06-24T13:49:13;4.28;;;3.47;;
47481;SDS011;33219;47.410;9.730;2023-06-24T13:51:41;4.60;;;3.65;;
47481;SDS011;33219;47.410;9.730;2023-06-24T13:54:09;4.10;;;3.35;;
47481;SDS011;33219;47.410;9.730;2023-06-24T13:56:36;4.92;;;3.65;;
47481;SDS011;33219;47.410;9.730;2023-06-24T13:59:04;5.70;;;5.00;;
47481;SDS011;33219;47.410;9.730;2023-06-24T14:01:32;6.60;;;5.55;;
47481;SDS011;33219;47.410;9.730;2023-06-24T14:03:59;5.62;;;4.92;;
47481;SDS011;33219;47.410;9.730;2023-06-24T14:06:27;5.50;;;4.22;;
47481;SDS011;33219;47.410;9.730;2023-06-24T14:08:55;4.58;;;3.55;;
47481;SDS011;33219;47.410;9.730;2023-06-24T14:11:23;5.17;;;3.60;;
47481;SDS011;33219;47.410;9.730;2023-06-24T14:13:50;4.37;;;3.62;;
47481;SDS011;33219;47.410;9.730;2023-06-24T14:16:18;4.83;;;4.22;;
47481;SDS011;33219;47.410;9.730;2023-06-24T14:18:45;5.72;;;3.90;;
47481;SDS011;33219;47.410;9.730;2023-06-24T14:21:13;4.83;;;3.30;;
47481;SDS011;33219;47.410;9.730;2023-06-24T14:23:40;4.60;;;3.70;;
47481;SDS011;33219;47.410;9.730;2023-06-24T14:26:08;4.85;;;3.98;;
47481;SDS011;33219;47.410;9.730;2023-06-24T14:28:36;5.00;;;4.30;;
47481;SDS011;33219;47.410;9.730;2023-06-24T14:31:03;6.22;;;4.72;;
47481;SDS011;33219;47.410;9.730;2023-06-24T14:33:31;4.87;;;3.87;;
47481;SDS011;33219;47.410;9.730;2023-06-24T14:35:58;6.33;;;5.05;;
47481;SDS011;33219;47.410;9.730;2023-06-24T14:38:26;5.08;;;3.80;;
47481;SDS011;33219;47.410;9.730;2023-06-24T14:40:53;5.62;;;4.60;;
47481;SDS011;33219;47.410;9.730;2023-06-24T14:43:22;5.55;;;4.12;;
47481;SDS011;33219;47.410;9.730;2023-06-24T14:45:50;4.85;;;4.17;;
47481;SDS011;33219;47.410;9.730;2023-06-24T14:48:17;5.70;;;3.90;;
47481;SDS011;33219;47.410;9.730;2023-06-24T14:50:45;5.12;;;4.17;;
47481;SDS011;33219;47.410;9.730;2023-06-24T14:53:12;4.42;;;3.92;;
47481;SDS011;33219;47.410;9.730;2023-06-24T14:55:40;4.47;;;3.42;;
47481;SDS011;33219;47.410;9.730;2023-06-24T14:58:08;5.00;;;4.30;;
47481;SDS011;33219;47.410;9.730;2023-06-24T15:00:35;4.75;;;3.65;;
47481;SDS011;33219;47.410;9.730;2023-06-24T15:03:03;4.22;;;3.60;;
47481;SDS011;33219;47.410;9.730;2023-06-24T15:05:33;4.83;;;4.10;;